createdAt,value
2023-04-03T00:02:37.261Z,1.37
2023-04-03T00:07:00.540Z,1.33
2023-04-03T00:11:13.157Z,1.31
2023-04-03T00:15:18.992Z,1.35
2023-04-03T00:19:54.439Z,1.35
2023-04-03T00:24:08.539Z,1.27
2023-04-03T00:28:29.612Z,1.21
2023-04-03T00:33:10.162Z,1.18
2023-04-03T00:37:25.483Z,1.17
2023-04-03T00:41:50.391Z,1.16
2023-04-03T00:46:12.745Z,1.16
2023-04-03T00:50:34.775Z,1.14
2023-04-03T00:54:58.599Z,1.16
2023-04-03T00:59:13.789Z,1.17
2023-04-03T01:03:41.379Z,1.17
2023-04-03T01:08:17.105Z,1.15
2023-04-03T01:12:28.471Z,1.12
2023-04-03T01:16:56.889Z,1.09
2023-04-03T01:21:25.996Z,1.06
2023-04-03T01:25:52.131Z,1.03
2023-04-03T01:30:00.730Z,1.02
2023-04-03T01:34:09.552Z,1.02
2023-04-03T01:38:23.810Z,1.02
2023-04-03T01:42:57.761Z,1.03
2023-04-03T01:47:21.800Z,1.02
2023-04-03T01:51:49.824Z,1.01
2023-04-03T01:56:23.410Z,1.01
2023-04-03T02:00:34.617Z,1.00
2023-04-03T02:05:05.931Z,0.99
2023-04-03T02:08:51.335Z,0.98
2023-04-03T02:13:12.507Z,0.95
2023-04-03T02:17:18.097Z,0.90
2023-04-03T02:21:46.150Z,0.87
2023-04-03T02:25:59.061Z,0.83
2023-04-03T02:30:22.697Z,0.81
2023-04-03T02:36:54.411Z,0.80
2023-04-03T02:40:58.470Z,0.80
2023-04-03T02:44:59.392Z,0.79
2023-04-03T02:49:19.905Z,0.80
2023-04-03T02:53:25.851Z,0.80
2023-04-03T02:57:35.469Z,0.79
2023-04-03T03:01:41.888Z,0.80
2023-04-03T03:05:45.186Z,0.80
2023-04-03T03:09:47.586Z,0.82
2023-04-03T03:13:46.860Z,0.80
2023-04-03T03:17:57.894Z,0.80
2023-04-03T03:22:00.541Z,0.80
2023-04-03T03:26:13.325Z,0.79
2023-04-03T03:30:17.761Z,0.78
2023-04-03T03:34:37.229Z,0.77
2023-04-03T03:38:21.687Z,0.77
2023-04-03T03:42:32.306Z,0.76
2023-04-03T03:46:56.741Z,0.74
2023-04-03T03:51:00.013Z,0.73
2023-04-03T03:55:02.913Z,0.70
2023-04-03T03:59:07.428Z,0.66
2023-04-03T04:02:40.932Z,0.62
2023-04-03T04:06:51.868Z,0.59
2023-04-03T04:10:49.607Z,0.56
2023-04-03T04:14:56.507Z,0.54
2023-04-03T04:19:01.410Z,0.52
2023-04-03T04:22:49.109Z,0.51
2023-04-03T04:26:52.779Z,0.51
2023-04-03T04:30:58.679Z,0.51
2023-04-03T04:35:01.209Z,0.50
2023-04-03T04:39:02.571Z,0.51
2023-04-03T04:43:14.160Z,0.53
2023-04-03T04:47:25.377Z,0.52
2023-04-03T04:51:35.188Z,0.50
2023-04-03T04:55:38.946Z,0.48
2023-04-03T04:59:40.668Z,0.46
2023-04-03T05:03:36.609Z,0.42
2023-04-03T05:07:39.126Z,0.37
2023-04-03T05:11:45.414Z,0.30
2023-04-03T05:15:51.916Z,0.26
2023-04-03T05:19:54.725Z,0.25
2023-04-03T05:24:01.572Z,0.23
2023-04-03T05:28:19.459Z,0.21
2023-04-03T05:32:26.986Z,0.20
2023-04-03T05:36:34.008Z,0.19
2023-04-03T05:40:38.171Z,0.17
2023-04-03T05:44:43.514Z,0.15
2023-04-03T05:48:48.777Z,0.13
2023-04-03T05:53:23.093Z,0.12
2023-04-03T05:57:29.194Z,0.10
2023-04-03T06:01:42.711Z,0.04
2023-04-03T06:05:49.552Z,0.03
2023-04-03T06:09:53.281Z,0.06
2023-04-03T06:14:08.751Z,0.07
2023-04-03T06:18:12.197Z,0.01
2023-04-03T06:22:33.348Z,-0.05
2023-04-03T06:26:53.487Z,-0.10
2023-04-03T06:30:45.672Z,-0.13
2023-04-03T06:34:49.605Z,-0.16
2023-04-03T06:39:00.543Z,-0.19
2023-04-03T06:43:04.160Z,-0.15
2023-04-03T06:47:09.224Z,-0.07
2023-04-03T06:51:12.148Z,-0.01
2023-04-03T06:55:21.582Z,0.05
2023-04-03T06:59:36.406Z,0.09
2023-04-03T07:03:59.443Z,0.17
2023-04-03T07:08:03.821Z,0.25
2023-04-03T07:12:08.464Z,0.30
2023-04-03T07:16:12.087Z,0.41
2023-04-03T07:20:41.886Z,0.61
2023-04-03T07:24:46.226Z,0.77
2023-04-03T07:28:50.304Z,0.93
2023-04-03T07:33:14.477Z,1.11
2023-04-03T07:37:21.301Z,1.39
2023-04-03T07:41:28.648Z,1.45
2023-04-03T07:45:36.033Z,1.53
2023-04-03T07:49:20.611Z,1.78
2023-04-03T07:53:23.897Z,2.08
2023-04-03T07:57:30.051Z,2.52
2023-04-03T08:00:47.198Z,2.83
2023-04-03T08:04:58.282Z,2.74
2023-04-03T08:09:03.020Z,2.43
2023-04-03T08:12:59.784Z,2.14
2023-04-03T08:17:09.735Z,2.02
2023-04-03T08:21:12.491Z,1.99
2023-04-03T08:25:15.224Z,2.08
2023-04-03T08:29:14.020Z,2.20
2023-04-03T08:33:09.402Z,2.41
2023-04-03T08:37:17.973Z,2.60
2023-04-03T08:41:19.843Z,2.79
2023-04-03T08:45:08.093Z,2.90
2023-04-03T08:49:20.930Z,3.17
2023-04-03T08:53:23.884Z,3.16
2023-04-03T08:57:22.016Z,2.58
2023-04-03T09:01:41.115Z,2.25
2023-04-03T09:05:45.306Z,2.17
2023-04-03T09:09:53.766Z,2.68
2023-04-03T09:14:01.994Z,2.92
2023-04-03T09:18:16.290Z,3.02
2023-04-03T09:22:14.972Z,3.11
2023-04-03T09:26:18.060Z,3.06
2023-04-03T09:30:20.718Z,2.79
2023-04-03T09:34:23.161Z,2.41
2023-04-03T09:38:22.581Z,2.02
2023-04-03T09:42:36.638Z,1.88
2023-04-03T09:46:57.176Z,1.98
2023-04-03T09:51:09.149Z,1.86
2023-04-03T09:55:05.538Z,1.93
2023-04-03T09:59:14.021Z,2.25
2023-04-03T10:03:09.076Z,2.49
2023-04-03T10:07:13.152Z,2.52
2023-04-03T10:11:12.259Z,2.54
2023-04-03T10:15:19.260Z,2.54
2023-04-03T10:19:46.463Z,2.79
2023-04-03T10:23:53.622Z,3.04
2023-04-03T10:28:14.593Z,3.25
2023-04-03T10:32:40.326Z,3.07
2023-04-03T10:36:49.719Z,3.00
2023-04-03T10:41:00.134Z,3.06
2023-04-03T10:45:13.108Z,3.23
2023-04-03T10:49:34.064Z,3.30
2023-04-03T10:53:41.099Z,3.26
2023-04-03T10:58:04.080Z,3.30
2023-04-03T11:02:09.550Z,3.33
2023-04-03T11:06:30.736Z,3.47
2023-04-03T11:10:37.659Z,3.48
2023-04-03T11:15:01.705Z,3.47
2023-04-03T11:19:03.945Z,3.52
2023-04-03T11:23:06.165Z,3.38
2023-04-03T11:27:07.826Z,3.18
2023-04-03T11:31:14.364Z,3.41
2023-04-03T11:35:25.005Z,3.69
2023-04-03T11:39:31.921Z,3.93
2023-04-03T11:43:41.268Z,3.98
2023-04-03T11:47:54.942Z,3.89
2023-04-03T11:52:00.229Z,3.83
2023-04-03T11:56:13.457Z,4.11
2023-04-03T12:00:19.825Z,4.16
2023-04-03T12:04:25.533Z,3.97
2023-04-03T12:08:32.120Z,3.98
2023-04-03T12:13:06.193Z,4.10
2023-04-03T12:17:11.766Z,4.11
2023-04-03T12:21:32.201Z,4.05
2023-04-03T12:25:35.975Z,4.19
2023-04-03T12:29:42.182Z,4.15
2023-04-03T12:34:05.794Z,4.23
2023-04-03T12:38:16.189Z,4.15
2023-04-03T12:42:25.145Z,4.42
2023-04-03T12:46:37.018Z,4.78
2023-04-03T12:51:06.242Z,4.94
2023-04-03T12:55:28.870Z,4.97
2023-04-03T12:59:39.531Z,4.80
2023-04-03T13:03:58.846Z,4.91
2023-04-03T13:08:21.982Z,5.13
2023-04-03T13:11:59.340Z,5.20
2023-04-03T13:16:09.610Z,5.27
2023-04-03T13:20:40.187Z,5.19
2023-04-03T13:24:45.413Z,4.96
2023-04-03T13:29:08.311Z,4.84
2023-04-03T13:33:18.847Z,5.04
2023-04-03T13:37:25.463Z,5.26
2023-04-03T13:41:31.130Z,5.50
2023-04-03T13:46:10.883Z,5.37
2023-04-03T13:50:45.501Z,5.28
2023-04-03T13:55:07.872Z,4.99
2023-04-03T13:59:13.667Z,4.76
2023-04-03T14:03:20.936Z,4.64
2023-04-03T14:07:43.538Z,4.72
2023-04-03T14:12:05.332Z,4.79
2023-04-03T14:16:16.182Z,4.77
2023-04-03T14:20:24.340Z,4.89
2023-04-03T14:24:30.472Z,5.18
2023-04-03T14:28:39.966Z,5.22
2023-04-03T14:33:03.858Z,5.00
2023-04-03T14:37:16.046Z,4.78
2023-04-03T14:41:27.065Z,4.47
2023-04-03T14:45:50.469Z,4.25
2023-04-03T14:50:14.949Z,4.35
2023-04-03T14:54:17.673Z,4.36
2023-04-03T14:58:38.719Z,4.27
2023-04-03T15:02:42.395Z,4.05
2023-04-03T15:07:08.442Z,3.82
2023-04-03T15:11:15.953Z,3.90
2023-04-03T15:15:27.030Z,4.15
2023-04-03T15:19:49.689Z,4.13
2023-04-03T15:24:04.653Z,3.99
2023-04-03T15:28:25.933Z,3.83
2023-04-03T15:32:31.313Z,3.73
2023-04-03T15:36:39.226Z,3.70
2023-04-03T15:40:58.872Z,3.58
2023-04-03T15:45:25.760Z,3.48
2023-04-03T15:49:56.141Z,3.32
2023-04-03T15:54:18.883Z,3.27
2023-04-03T15:58:42.416Z,3.24
2023-04-03T16:03:01.827Z,3.26
2023-04-03T16:07:44.403Z,3.24
2023-04-03T16:11:53.078Z,3.15
2023-04-03T16:16:15.774Z,3.01
2023-04-03T16:20:37.559Z,2.82
2023-04-03T16:24:43.512Z,2.66
2023-04-03T16:29:16.009Z,2.49
2023-04-03T16:33:19.157Z,2.44
2023-04-03T16:37:38.569Z,2.38
2023-04-03T16:42:08.851Z,2.36
2023-04-03T16:46:27.649Z,2.37
2023-04-03T16:50:50.810Z,2.31
2023-04-03T16:54:42.071Z,2.26
2023-04-03T16:59:24.823Z,2.23
2023-04-03T17:03:43.756Z,2.17
2023-04-03T17:08:03.806Z,2.09
2023-04-03T17:12:07.759Z,2.01
2023-04-03T17:16:35.004Z,1.89
2023-04-03T17:20:50.280Z,1.81
2023-04-03T17:25:04.694Z,1.72
2023-04-03T17:29:10.652Z,1.65
2023-04-03T17:33:41.486Z,1.58
2023-04-03T17:38:05.813Z,1.52
2023-04-03T17:42:09.677Z,1.48
2023-04-03T17:46:28.489Z,1.48
2023-04-03T17:50:31.968Z,1.50
2023-04-03T17:54:55.483Z,1.49
2023-04-03T17:59:16.853Z,1.49
2023-04-03T18:04:00.649Z,1.51
2023-04-03T18:08:24.659Z,1.49
2023-04-03T18:12:28.681Z,1.43
2023-04-03T18:16:36.581Z,1.42
2023-04-03T18:20:43.739Z,1.41
2023-04-03T18:25:07.576Z,1.42
2023-04-03T18:29:30.902Z,1.43
2023-04-03T18:37:23.634Z,1.43
2023-04-03T18:41:55.021Z,1.40
2023-04-03T18:46:07.436Z,1.38
2023-04-03T18:50:46.472Z,1.36
2023-04-03T18:55:19.815Z,1.34
2023-04-03T18:59:51.583Z,1.32
2023-04-03T19:04:11.275Z,1.34
2023-04-03T19:08:15.455Z,1.29
2023-04-03T19:12:47.495Z,1.25
2023-04-03T19:17:02.409Z,1.18
2023-04-03T19:21:37.053Z,1.13
2023-04-03T19:26:01.453Z,1.09
2023-04-03T19:30:19.705Z,1.09
2023-04-03T19:34:38.881Z,1.07
2023-04-03T19:39:06.015Z,1.05
2023-04-03T19:43:30.751Z,1.01
2023-04-03T19:48:15.415Z,1.05
2023-04-03T19:52:42.249Z,1.06
2023-04-03T19:57:10.317Z,1.04
2023-04-03T20:01:54.056Z,1.00
2023-04-03T20:06:05.053Z,0.99
2023-04-03T20:10:32.075Z,1.00
2023-04-03T20:14:38.533Z,0.99
2023-04-03T20:19:09.611Z,1.02
2023-04-03T20:23:33.448Z,1.00
2023-04-03T20:27:54.709Z,0.97
2023-04-03T20:32:21.832Z,0.94
2023-04-03T20:36:30.724Z,0.91
2023-04-03T20:40:37.035Z,0.88
2023-04-03T20:45:03.504Z,0.85
2023-04-03T20:49:31.420Z,0.82
2023-04-03T20:53:59.763Z,0.80
2023-04-03T20:58:09.752Z,0.77
2023-04-03T21:02:41.828Z,0.75
2023-04-03T21:07:25.105Z,0.73
2023-04-03T21:12:06.939Z,0.72
2023-04-03T21:16:33.052Z,0.69
2023-04-03T21:21:04.419Z,0.66
2023-04-03T21:25:10.110Z,0.64
2023-04-03T21:29:41.921Z,0.64
2023-04-03T21:34:02.914Z,0.64
2023-04-03T21:38:25.505Z,0.62
2023-04-03T21:42:33.904Z,0.62
2023-04-03T21:46:59.879Z,0.63
2023-04-03T21:51:45.363Z,0.63
2023-04-03T21:56:11.043Z,0.61
2023-04-03T22:00:43.244Z,0.58
2023-04-03T22:04:50.200Z,0.59
2023-04-03T22:09:35.053Z,0.60
2023-04-03T22:14:03.023Z,0.58
2023-04-03T22:18:31.008Z,0.55
2023-04-03T22:22:45.536Z,0.53
2023-04-03T22:27:13.131Z,0.46
2023-04-03T22:31:25.904Z,0.39
2023-04-03T22:36:09.696Z,0.26
2023-04-03T22:40:20.668Z,0.15
2023-04-03T22:44:44.641Z,0.04
2023-04-03T22:48:49.062Z,-0.08
2023-04-03T22:53:28.682Z,-0.22
2023-04-03T22:58:00.775Z,-0.36
2023-04-03T23:02:25.141Z,-0.46
2023-04-03T23:06:52.844Z,-0.54
2023-04-03T23:11:28.969Z,-0.64
2023-04-03T23:15:57.238Z,-0.72
2023-04-03T23:20:18.380Z,-0.78
2023-04-03T23:24:25.201Z,-0.84
2023-04-03T23:28:51.301Z,-0.92
2023-04-03T23:33:11.817Z,-0.99
2023-04-03T23:37:40.761Z,-1.00
2023-04-03T23:42:01.261Z,-1.06
2023-04-03T23:46:05.067Z,-1.08
2023-04-03T23:50:24.463Z,-1.09
2023-04-03T23:54:46.306Z,-1.08
2023-04-03T23:59:17.957Z,-1.04
